Time;durP1;ratioP1;P1;durP2;ratioP2;P2;SDS_P1;SDS_P2;PMS_P1;PMS_P2;Temp;Humidity;BMP_temperature;BMP_pressure;BME280_temperature;BME280_humidity;BME280_pressure;Samples;Min_cycle;Max_cycle;Signal;HPM_P1;HPM_P2
2022/09/29 00:00:37;;;;;;;3.85;2.70;;;5.90;99.90;;;;;;5128998;27;20043;-81
2022/09/29 00:03:03;;;;;;;4.15;2.80;;;5.90;99.90;;;;;;5113444;28;20051;-80
2022/09/29 00:05:29;;;;;;;4.57;2.78;;;5.90;99.90;;;;;;5113159;28;20043;-80
2022/09/29 00:07:55;;;;;;;7.45;3.30;;;6.00;99.90;;;;;;5113054;27;20043;-92
2022/09/29 00:10:21;;;;;;;4.57;3.05;;;6.00;99.90;;;;;;5112870;28;20047;-81
2022/09/29 00:12:46;;;;;;;3.92;2.72;;;6.10;99.90;;;;;;5111344;28;20055;-82
2022/09/29 00:15:12;;;;;;;5.47;2.97;;;6.00;99.90;;;;;;5112678;28;20050;-83
2022/09/29 00:17:38;;;;;;;6.60;3.20;;;6.00;99.90;;;;;;5112893;28;20047;-88
2022/09/29 00:20:04;;;;;;;5.00;2.70;;;6.00;99.90;;;;;;5111468;28;20451;-85
2022/09/29 00:22:30;;;;;;;3.45;1.90;;;6.00;99.90;;;;;;5111509;28;20143;-90
2022/09/29 00:24:55;;;;;;;3.22;2.00;;;5.90;99.90;;;;;;5113039;28;20118;-81
2022/09/29 00:27:21;;;;;;;4.05;3.08;;;5.80;99.90;;;;;;5111809;28;20404;-81
2022/09/29 00:29:46;;;;;;;3.25;2.25;;;5.80;99.90;;;;;;5112075;28;20051;-82
2022/09/29 00:32:12;;;;;;;6.70;2.60;;;5.80;99.90;;;;;;5112568;28;20105;-88
2022/09/29 00:34:38;;;;;;;3.33;1.92;;;5.70;99.90;;;;;;5094840;28;20043;-89
2022/09/29 00:37:04;;;;;;;3.45;2.00;;;5.70;99.90;;;;;;5094319;28;20079;-84
2022/09/29 00:39:30;;;;;;;4.10;2.10;;;5.70;99.90;;;;;;5093783;28;20228;-80
2022/09/29 00:41:56;;;;;;;4.50;2.40;;;5.60;99.90;;;;;;5112618;28;20053;-84
2022/09/29 00:44:22;;;;;;;4.78;2.75;;;5.60;99.90;;;;;;5112830;28;20047;-82
2022/09/29 00:46:47;;;;;;;7.72;3.53;;;5.60;99.90;;;;;;5093750;28;20051;-86
2022/09/29 00:49:39;;;;;;;5.47;3.97;;;5.70;99.90;;;;;;5093901;28;20406;-88
2022/09/29 00:52:17;;;;;;;5.60;3.78;;;5.70;99.90;;;;;;5107689;28;20425;-79
2022/09/29 00:55:09;;;;;;;9.35;4.90;;;5.70;99.90;;;;;;5111453;28;20043;-81
2022/09/29 00:57:52;;;;;;;7.03;4.45;;;5.80;99.90;;;;;;5112019;28;20508;-79
2022/09/29 01:00:18;;;;;;;6.88;4.78;;;5.80;99.90;;;;;;5111988;28;20444;-81
2022/09/29 01:02:48;;;;;;;7.03;4.28;;;5.80;99.90;;;;;;5111280;28;20047;-91
2022/09/29 01:05:24;;;;;;;7.10;4.90;;;5.80;99.90;;;;;;5111467;28;20095;-82
2022/09/29 01:07:50;;;;;;;5.32;4.10;;;5.80;99.90;;;;;;5111036;28;20047;-80
2022/09/29 01:10:17;;;;;;;7.57;4.80;;;5.80;99.90;;;;;;5093624;28;20050;-91
2022/09/29 01:12:47;;;;;;;7.35;4.82;;;5.80;99.90;;;;;;5093713;28;20140;-79
2022/09/29 01:15:15;;;;;;;7.28;4.80;;;5.90;99.90;;;;;;5093441;28;20040;-82
2022/09/29 01:17:41;;;;;;;7.28;5.18;;;5.90;99.90;;;;;;5093112;28;20520;-81
2022/09/29 01:20:15;;;;;;;8.02;4.55;;;5.90;99.90;;;;;;5092214;28;20047;-79
2022/09/29 01:23:19;;;;;;;6.75;4.10;;;5.90;99.90;;;;;;5093076;28;20048;-80
2022/09/29 01:26:00;;;;;;;11.50;3.80;;;5.90;99.90;;;;;;5092956;28;20493;-86
2022/09/29 01:28:45;;;;;;;5.45;3.80;;;5.80;99.90;;;;;;5111366;28;20058;-87
2022/09/29 01:31:42;;;;;;;6.82;4.03;;;5.80;99.90;;;;;;5110294;28;20429;-81
2022/09/29 01:34:15;;;;;;;8.05;4.47;;;5.70;99.90;;;;;;5092153;28;20043;-79
2022/09/29 01:37:09;;;;;;;6.43;4.82;;;5.80;99.90;;;;;;5111676;28;20044;-86
2022/09/29 01:39:46;;;;;;;6.47;4.43;;;5.80;99.90;;;;;;5110964;28;20053;-85
2022/09/29 01:42:19;;;;;;;8.13;5.50;;;5.80;99.90;;;;;;5110512;28;20039;-79
2022/09/29 01:44:51;;;;;;;6.13;4.20;;;5.80;99.90;;;;;;5090971;28;20097;-85
2022/09/29 01:47:23;;;;;;;38.15;5.32;;;5.70;99.90;;;;;;5072863;28;20548;-79
2022/09/29 01:49:59;;;;;;;8.63;4.28;;;5.60;99.90;;;;;;5097690;28;20039;-91
2022/09/29 01:52:31;;;;;;;5.55;4.18;;;5.70;99.90;;;;;;5091770;28;20078;-89
2022/09/29 01:55:07;;;;;;;4.38;3.00;;;5.60;99.90;;;;;;5110728;28;20047;-89
2022/09/29 01:57:51;;;;;;;4.80;2.80;;;5.50;99.90;;;;;;5110632;28;20040;-84
2022/09/29 02:00:19;;;;;;;4.28;2.63;;;5.40;99.90;;;;;;5110182;28;20052;-78
2022/09/29 02:03:01;;;;;;;3.30;2.42;;;5.90;99.90;;;;;;5072190;28;20048;-84
2022/09/29 02:05:30;;;;;;;7.65;2.85;;;5.40;99.90;;;;;;5089861;28;20048;-86
2022/09/29 02:08:11;;;;;;;4.25;2.85;;;5.30;99.90;;;;;;5105832;28;20040;-89
2022/09/29 02:11:00;;;;;;;3.92;2.70;;;5.30;99.90;;;;;;5091597;28;20044;-89
2022/09/29 02:13:33;;;;;;;4.03;2.28;;;5.30;99.90;;;;;;5090150;28;20048;-82
2022/09/29 02:16:00;;;;;;;4.63;2.90;;;5.20;99.90;;;;;;5102279;28;20035;-85
2022/09/29 02:18:31;;;;;;;5.07;3.30;;;5.20;99.90;;;;;;5110724;28;20047;-79
2022/09/29 02:20:57;;;;;;;4.90;3.50;;;5.20;99.90;;;;;;5110086;28;20039;-85
2022/09/29 02:23:22;;;;;;;4.70;3.00;;;5.40;99.90;;;;;;5110111;28;20043;-83
2022/09/29 02:25:50;;;;;;;3.78;2.75;;;5.10;99.90;;;;;;5110364;28;20482;-79
2022/09/29 02:28:16;;;;;;;3.65;2.35;;;5.10;99.90;;;;;;5110370;28;20051;-79
2022/09/29 02:30:42;;;;;;;4.03;2.33;;;5.00;99.90;;;;;;5106561;28;20043;-80
2022/09/29 02:33:22;;;;;;;3.92;2.20;;;5.00;99.90;;;;;;5109967;28;20077;-82
2022/09/29 02:35:59;;;;;;;3.47;2.53;;;4.90;99.90;;;;;;5108737;28;20524;-78
2022/09/29 02:38:35;;;;;;;4.00;2.83;;;4.90;99.90;;;;;;5108886;28;20083;-81
2022/09/29 02:41:33;;;;;;;4.82;3.28;;;4.90;99.90;;;;;;5110000;28;20185;-80
2022/09/29 02:44:31;;;;;;;4.63;3.38;;;4.90;99.90;;;;;;5109504;28;20043;-88
2022/09/29 02:47:12;;;;;;;8.68;4.60;;;4.90;99.90;;;;;;5109661;28;20058;-84
2022/09/29 02:49:44;;;;;;;6.20;3.83;;;4.90;99.90;;;;;;5091666;28;20435;-78
2022/09/29 02:52:45;;;;;;;5.97;4.90;;;4.90;99.90;;;;;;5142632;27;20058;-84
2022/09/29 02:55:19;;;;;;;18.33;3.45;;;4.90;99.90;;;;;;5046459;28;20072;-78
2022/09/29 02:58:02;;;;;;;54.22;5.72;;;4.80;99.90;;;;;;5046718;28;20052;-80
2022/09/29 03:00:28;;;;;;;4.45;3.08;;;4.70;99.90;;;;;;5046279;28;20060;-84
2022/09/29 03:02:54;;;;;;;11.45;3.70;;;4.70;99.90;;;;;;5046197;28;20049;-78
2022/09/29 03:05:22;;;;;;;4.70;2.50;;;4.80;99.90;;;;;;5046866;28;20053;-79
2022/09/29 03:07:48;;;;;;;3.80;2.55;;;4.70;99.90;;;;;;5046075;28;20273;-79
2022/09/29 03:10:15;;;;;;;4.43;3.28;;;4.70;99.90;;;;;;5063431;28;20124;-78
2022/09/29 03:12:41;;;;;;;8.45;4.00;;;4.60;99.90;;;;;;5046305;28;20057;-80
2022/09/29 03:15:08;;;;;;;6.30;5.03;;;4.60;99.90;;;;;;5046896;28;20048;-78
2022/09/29 03:17:33;;;;;;;7.32;5.03;;;4.70;99.90;;;;;;5030156;28;20534;-78
2022/09/29 03:19:59;;;;;;;6.68;5.13;;;4.70;99.90;;;;;;5046729;28;20061;-78
2022/09/29 03:22:25;;;;;;;5.53;4.40;;;4.70;99.90;;;;;;5046366;28;20487;-83
2022/09/29 03:24:51;;;;;;;6.95;3.75;;;4.70;99.90;;;;;;5046241;28;20053;-77
2022/09/29 03:27:16;;;;;;;4.40;3.20;;;4.70;99.90;;;;;;5046338;28;20037;-77
2022/09/29 03:29:42;;;;;;;6.03;3.90;;;4.70;99.90;;;;;;5030607;28;20061;-79
2022/09/29 03:32:08;;;;;;;7.30;3.10;;;4.70;99.90;;;;;;5076460;28;20493;-82
2022/09/29 03:34:34;;;;;;;4.28;3.10;;;5.10;99.90;;;;;;5113273;28;20050;-82
2022/09/29 03:37:00;;;;;;;3.65;2.85;;;4.70;99.90;;;;;;5111775;28;20741;-78
2022/09/29 03:39:26;;;;;;;3.22;2.20;;;4.60;99.90;;;;;;5094903;28;20051;-80
2022/09/29 03:41:52;;;;;;;3.33;2.38;;;4.60;99.90;;;;;;5113124;28;20051;-78
2022/09/29 03:44:18;;;;;;;2.70;2.08;;;4.60;99.90;;;;;;5112465;28;20040;-79
2022/09/29 03:46:45;;;;;;;2.35;1.75;;;4.50;99.90;;;;;;5111302;28;20055;-76
2022/09/29 03:49:11;;;;;;;3.20;2.53;;;4.50;99.90;;;;;;5112987;28;20046;-81
2022/09/29 03:51:38;;;;;;;2.80;2.10;;;4.40;99.90;;;;;;5112770;28;20051;-86
2022/09/29 03:54:03;;;;;;;3.40;2.80;;;4.40;99.90;;;;;;5112621;28;20044;-77
2022/09/29 03:56:29;;;;;;;3.75;2.80;;;4.40;99.90;;;;;;5112622;28;20047;-83
2022/09/29 03:58:55;;;;;;;4.07;3.17;;;4.40;99.90;;;;;;5113084;28;20097;-86
2022/09/29 04:01:21;;;;;;;4.70;3.42;;;4.40;99.90;;;;;;5112733;28;20044;-82
2022/09/29 04:03:46;;;;;;;3.97;2.83;;;4.40;99.90;;;;;;5145990;27;20047;-85
2022/09/29 04:06:15;;;;;;;3.42;2.25;;;4.40;99.90;;;;;;5112922;28;20047;-81
2022/09/29 04:08:41;;;;;;;3.63;2.70;;;4.30;99.90;;;;;;5145973;27;20031;-77
2022/09/29 04:11:06;;;;;;;3.85;2.90;;;4.30;99.90;;;;;;5110587;28;20527;-83
2022/09/29 04:13:32;;;;;;;4.68;2.97;;;4.30;99.90;;;;;;5112491;28;20083;-81
2022/09/29 04:16:03;;;;;;;6.03;3.72;;;4.30;99.90;;;;;;5111191;28;20078;-78
2022/09/29 04:18:30;;;;;;;5.40;3.92;;;4.30;99.90;;;;;;5111476;28;20039;-82
2022/09/29 04:20:59;;;;;;;4.45;3.28;;;4.30;99.90;;;;;;5112524;28;20086;-79
2022/09/29 04:23:29;;;;;;;4.40;3.28;;;4.20;99.90;;;;;;5112203;28;20055;-80
2022/09/29 04:25:55;;;;;;;6.10;4.30;;;4.20;99.90;;;;;;5112021;28;20039;-81
2022/09/29 04:28:21;;;;;;;7.13;5.43;;;4.20;99.90;;;;;;5111053;28;20055;-84
2022/09/29 04:30:47;;;;;;;8.65;6.55;;;4.30;99.90;;;;;;5110251;28;20058;-76
2022/09/29 04:33:13;;;;;;;14.20;6.97;;;4.40;99.90;;;;;;5111889;28;20055;-76
2022/09/29 04:35:38;;;;;;;7.53;6.18;;;4.40;99.90;;;;;;5112199;28;20474;-77
2022/09/29 04:38:04;;;;;;;7.45;5.50;;;4.40;99.90;;;;;;5112183;28;20122;-81
2022/09/29 04:40:30;;;;;;;7.93;6.15;;;4.40;99.90;;;;;;5110920;28;20066;-79
2022/09/29 04:42:55;;;;;;;8.05;6.28;;;4.40;99.90;;;;;;5111145;28;20082;-77
2022/09/29 04:45:21;;;;;;;8.00;6.38;;;4.50;99.90;;;;;;5112125;28;20044;-78
2022/09/29 04:47:47;;;;;;;6.72;5.15;;;4.50;99.90;;;;;;5111457;28;20047;-81
2022/09/29 04:50:12;;;;;;;6.05;4.70;;;4.40;99.90;;;;;;5111954;28;20040;-83
2022/09/29 04:52:42;;;;;;;8.93;6.60;;;4.40;99.90;;;;;;5111841;28;20458;-79
2022/09/29 04:55:10;;;;;;;9.77;6.95;;;4.50;99.90;;;;;;5111455;28;20039;-78
2022/09/29 04:57:36;;;;;;;8.50;6.47;;;4.50;99.90;;;;;;5111297;28;20054;-78
2022/09/29 05:00:04;;;;;;;10.75;6.22;;;4.50;99.90;;;;;;5111230;28;20038;-77
2022/09/29 05:02:30;;;;;;;7.50;5.93;;;4.50;99.90;;;;;;5111821;28;20047;-86
2022/09/29 05:04:55;;;;;;;7.20;5.40;;;4.50;99.90;;;;;;5111392;28;20040;-82
2022/09/29 05:07:21;;;;;;;7.22;5.25;;;4.50;99.90;;;;;;5111362;28;20504;-81
2022/09/29 05:09:47;;;;;;;8.27;4.70;;;4.40;99.90;;;;;;5111466;28;20048;-81
2022/09/29 05:12:13;;;;;;;4.97;3.75;;;4.40;99.90;;;;;;5110957;28;20134;-78
2022/09/29 05:14:39;;;;;;;8.93;4.57;;;4.30;99.90;;;;;;5111241;28;20050;-79
2022/09/29 05:17:04;;;;;;;6.90;4.90;;;4.20;99.90;;;;;;5111398;28;20040;-76
2022/09/29 05:19:31;;;;;;;9.32;5.40;;;4.30;99.90;;;;;;5144512;27;20055;-83
2022/09/29 05:21:57;;;;;;;7.43;5.10;;;4.30;99.90;;;;;;5111312;28;20044;-78
2022/09/29 05:24:23;;;;;;;5.70;4.25;;;4.20;99.90;;;;;;5109862;28;20051;-82
2022/09/29 05:26:48;;;;;;;15.52;4.90;;;4.20;99.90;;;;;;5111222;28;20118;-78
2022/09/29 05:29:14;;;;;;;13.02;7.25;;;4.20;99.90;;;;;;5110345;28;20403;-78
2022/09/29 05:31:40;;;;;;;9.75;6.15;;;4.10;99.90;;;;;;5092313;28;20155;-78
2022/09/29 05:34:05;;;;;;;13.13;5.10;;;4.00;99.90;;;;;;5110823;28;20036;-81
2022/09/29 05:36:31;;;;;;;8.52;4.60;;;4.00;99.90;;;;;;5110963;28;20039;-83
2022/09/29 05:38:57;;;;;;;27.23;4.75;;;4.00;99.90;;;;;;5092504;28;20039;-83
2022/09/29 05:41:23;;;;;;;8.27;4.95;;;3.90;99.90;;;;;;5110237;28;20092;-78
2022/09/29 05:43:52;;;;;;;13.05;4.95;;;3.90;99.90;;;;;;5092107;28;20047;-78
2022/09/29 05:46:18;;;;;;;9.40;4.70;;;4.00;99.90;;;;;;5095611;28;20050;-78
2022/09/29 05:48:48;;;;;;;8.63;4.90;;;3.90;99.90;;;;;;5110605;28;20043;-76
2022/09/29 05:51:16;;;;;;;10.88;4.90;;;3.90;99.90;;;;;;5110008;28;20061;-78
2022/09/29 05:53:42;;;;;;;17.25;4.82;;;3.90;99.90;;;;;;5109075;28;20453;-78
2022/09/29 05:56:10;;;;;;;12.57;4.93;;;3.90;99.90;;;;;;5110539;28;20143;-78
2022/09/29 05:58:37;;;;;;;8.55;5.60;;;3.90;99.90;;;;;;5110438;28;20547;-77
2022/09/29 06:01:15;;;;;;;12.57;5.53;;;3.90;99.90;;;;;;5110024;28;20051;-78
2022/09/29 06:03:41;;;;;;;7.65;5.13;;;3.90;99.90;;;;;;5110219;28;20089;-83
2022/09/29 06:06:11;;;;;;;8.60;4.85;;;3.90;99.90;;;;;;5110577;28;20079;-80
2022/09/29 06:08:38;;;;;;;6.85;4.70;;;3.90;99.90;;;;;;5110446;28;20051;-79
2022/09/29 06:11:05;;;;;;;8.00;5.03;;;3.90;99.90;;;;;;5092103;28;20051;-76
2022/09/29 06:13:31;;;;;;;7.20;5.85;;;4.00;99.90;;;;;;5098031;28;20496;-84
2022/09/29 06:16:00;;;;;;;7.65;6.03;;;4.00;99.90;;;;;;5110459;28;20051;-79
2022/09/29 06:18:26;;;;;;;8.07;5.30;;;4.00;99.90;;;;;;5091902;28;20561;-78
2022/09/29 06:20:52;;;;;;;9.73;5.97;;;4.10;99.90;;;;;;5110264;28;20155;-79
2022/09/29 06:23:17;;;;;;;9.00;6.80;;;4.10;99.90;;;;;;5110163;28;20100;-79
2022/09/29 06:25:43;;;;;;;11.85;8.20;;;4.20;99.90;;;;;;5110059;28;20040;-79
2022/09/29 06:28:08;;;;;;;9.02;7.63;;;4.20;99.90;;;;;;5110216;28;20826;-88
2022/09/29 06:30:34;;;;;;;10.68;7.38;;;4.20;99.90;;;;;;5104385;28;20047;-79
2022/09/29 06:33:00;;;;;;;12.40;9.27;;;4.20;99.90;;;;;;5110139;28;20063;-79
2022/09/29 06:38:10;;;;;;;12.25;8.02;;;4.30;99.90;;;;;;5110110;28;20777;-80
2022/09/29 06:40:35;;;;;;;16.13;9.38;;;4.40;99.90;;;;;;5110287;28;20576;-77
2022/09/29 06:43:01;;;;;;;14.35;9.88;;;4.40;99.90;;;;;;5109188;28;20097;-86
2022/09/29 06:45:27;;;;;;;13.10;9.43;;;4.50;99.90;;;;;;5109744;28;20051;-78
2022/09/29 06:47:59;;;;;;;12.23;8.68;;;4.50;99.90;;;;;;5109399;28;20518;-78
2022/09/29 06:50:25;;;;;;;12.75;8.40;;;4.60;99.90;;;;;;5109783;28;20100;-79
2022/09/29 06:52:50;;;;;;;12.40;8.27;;;5.10;99.90;;;;;;5108263;28;20056;-78
2022/09/29 06:55:16;;;;;;;11.95;8.38;;;5.20;99.90;;;;;;5109850;28;20447;-79
2022/09/29 06:57:44;;;;;;;11.20;8.85;;;4.70;99.90;;;;;;5110222;28;20042;-81
2022/09/29 07:00:10;;;;;;;16.23;11.27;;;4.80;99.90;;;;;;5109872;28;20040;-82
2022/09/29 07:02:36;;;;;;;11.35;8.90;;;4.90;99.90;;;;;;5108166;28;20051;-80
2022/09/29 07:05:02;;;;;;;12.93;10.15;;;5.00;99.90;;;;;;5110827;28;20043;-78
2022/09/29 07:07:27;;;;;;;12.63;9.10;;;5.10;99.90;;;;;;5113859;28;20044;-85
2022/09/29 07:09:53;;;;;;;15.32;10.52;;;5.10;99.90;;;;;;5113536;28;20084;-80
2022/09/29 07:12:19;;;;;;;17.15;10.90;;;5.20;99.90;;;;;;5111353;28;20047;-79
2022/09/29 07:14:44;;;;;;;14.15;11.98;;;5.30;99.90;;;;;;5113245;28;20036;-81
2022/09/29 07:17:12;;;;;;;12.52;9.88;;;5.40;99.90;;;;;;5112252;28;20113;-78
2022/09/29 07:19:37;;;;;;;13.30;10.48;;;5.40;99.90;;;;;;5113499;28;20402;-78
2022/09/29 07:22:04;;;;;;;13.80;10.75;;;5.50;99.90;;;;;;5113650;28;20036;-78
2022/09/29 07:24:30;;;;;;;13.50;10.82;;;5.60;99.90;;;;;;5113514;28;20054;-83
2022/09/29 07:27:01;;;;;;;16.75;13.60;;;5.70;99.90;;;;;;5113473;28;20709;-79
2022/09/29 07:29:31;;;;;;;20.95;13.27;;;5.80;99.90;;;;;;5113503;28;20063;-79
2022/09/29 07:31:58;;;;;;;16.15;14.10;;;5.90;99.90;;;;;;5113554;28;20047;-85
2022/09/29 07:34:23;;;;;;;18.60;14.57;;;6.00;99.90;;;;;;5112261;28;20089;-75
2022/09/29 07:36:49;;;;;;;19.25;15.13;;;6.00;99.90;;;;;;5095318;28;20470;-84
2022/09/29 07:39:15;;;;;;;24.75;18.00;;;6.20;99.90;;;;;;5113297;28;20051;-78
2022/09/29 07:41:41;;;;;;;27.90;20.85;;;6.30;99.90;;;;;;5113142;28;20097;-83
2022/09/29 07:44:07;;;;;;;32.67;21.80;;;6.40;99.90;;;;;;5094828;28;20043;-78
2022/09/29 07:46:33;;;;;;;22.27;17.42;;;6.50;99.90;;;;;;5112983;28;20229;-80
2022/09/29 07:48:58;;;;;;;28.15;19.63;;;6.60;99.90;;;;;;5112865;28;20067;-81
2022/09/29 07:51:24;;;;;;;28.60;19.45;;;7.50;99.90;;;;;;5112467;28;20063;-82
2022/09/29 07:53:50;;;;;;;29.50;20.35;;;6.90;99.90;;;;;;5113147;28;20057;-79
2022/09/29 07:56:21;;;;;;;23.20;17.42;;;7.80;99.90;;;;;;5112455;28;20175;-79
2022/09/29 07:58:51;;;;;;;23.38;17.20;;;7.20;99.90;;;;;;5112933;28;20100;-80
2022/09/29 08:01:18;;;;;;;20.08;15.48;;;7.30;99.90;;;;;;5111325;28;20062;-75
2022/09/29 08:03:48;;;;;;;20.98;16.15;;;7.40;99.90;;;;;;5111854;28;20522;-75
2022/09/29 08:06:14;;;;;;;24.83;17.70;;;7.50;99.90;;;;;;5111915;28;20040;-76
2022/09/29 08:08:40;;;;;;;26.58;18.05;;;7.60;99.90;;;;;;5112353;28;20096;-78
2022/09/29 08:11:12;;;;;;;23.67;17.00;;;7.80;99.90;;;;;;5112265;28;20036;-76
2022/09/29 08:13:38;;;;;;;26.08;17.73;;;7.90;99.90;;;;;;5093325;28;20128;-76
2022/09/29 08:16:07;;;;;;;24.73;17.40;;;8.00;99.90;;;;;;5093751;28;20092;-75
2022/09/29 08:18:34;;;;;;;26.23;19.67;;;8.20;99.90;;;;;;5111920;28;20627;-89
2022/09/29 08:21:01;;;;;;;31.17;21.20;;;8.30;99.90;;;;;;5093498;28;20091;-76
2022/09/29 08:23:26;;;;;;;28.35;20.75;;;8.50;99.90;;;;;;5112641;28;20039;-78
2022/09/29 08:26:03;;;;;;;39.95;22.67;;;8.70;99.90;;;;;;5112263;28;20548;-79
2022/09/29 08:28:30;;;;;;;35.55;21.75;;;9.00;99.90;;;;;;5112749;28;20043;-78
2022/09/29 08:30:56;;;;;;;37.10;24.38;;;9.20;99.90;;;;;;5112134;28;20062;-79
2022/09/29 08:33:22;;;;;;;32.53;23.02;;;9.40;99.90;;;;;;5093661;28;20051;-78
2022/09/29 08:35:54;;;;;;;30.30;21.08;;;9.70;99.90;;;;;;5094040;28;20055;-79
2022/09/29 08:38:20;;;;;;;35.55;22.13;;;9.90;99.90;;;;;;5112659;28;20058;-86
2022/09/29 08:40:46;;;;;;;28.33;20.98;;;10.20;99.90;;;;;;5112793;28;20106;-78
2022/09/29 08:43:21;;;;;;;26.38;19.35;;;10.50;99.90;;;;;;5112199;28;20027;-79
2022/09/29 08:45:57;;;;;;;28.48;18.70;;;10.70;99.90;;;;;;5111339;28;20506;-91
2022/09/29 08:48:26;;;;;;;28.75;19.27;;;10.90;99.90;;;;;;5112083;28;20043;-87
2022/09/29 08:51:02;;;;;;;25.67;18.90;;;11.10;99.90;;;;;;5093821;28;20066;-78
2022/09/29 08:53:31;;;;;;;22.80;17.15;;;11.40;99.90;;;;;;5111490;28;20504;-81
2022/09/29 08:56:08;;;;;;;24.73;17.02;;;11.60;99.90;;;;;;5111772;28;20043;-78
2022/09/29 08:58:37;;;;;;;19.90;16.13;;;11.80;99.90;;;;;;5111647;28;20070;-78
2022/09/29 09:01:14;;;;;;;18.45;15.02;;;12.00;99.90;;;;;;5111865;28;20052;-79
2022/09/29 09:04:24;;;;;;;22.23;13.95;;;12.20;99.90;;;;;;5111770;28;20082;-78
2022/09/29 09:07:13;;;;;;;14.85;11.55;;;12.50;99.90;;;;;;4992681;28;20064;-77
2022/09/29 09:10:24;;;;;;;14.20;11.75;;;12.70;99.90;;;;;;5008638;28;20505;-78
2022/09/29 09:12:58;;;;;;;13.75;10.55;;;12.90;99.90;;;;;;4992809;28;20050;-80
2022/09/29 09:15:56;;;;;;;12.88;10.23;;;13.20;99.90;;;;;;5008908;28;20077;-82
2022/09/29 09:18:52;;;;;;;11.32;8.77;;;13.40;99.90;;;;;;4992107;28;20093;-79
2022/09/29 09:21:27;;;;;;;11.07;8.18;;;13.60;99.90;;;;;;5008521;28;20157;-82
2022/09/29 09:23:57;;;;;;;;;;;13.80;99.90;;;;;;5008724;28;20058;-79
2022/09/29 09:26:48;;;;;;;10.98;7.35;;;14.00;99.90;;;;;;5008207;28;20382;-77
2022/09/29 09:29:39;;;;;;;7.00;5.22;;;14.20;99.90;;;;;;5013183;28;20092;-77
2022/09/29 09:32:29;;;;;;;9.93;5.97;;;14.30;99.90;;;;;;5028431;28;20073;-78
2022/09/29 09:35:01;;;;;;;8.35;5.50;;;14.50;99.90;;;;;;4986991;28;20050;-76
2022/09/29 09:37:38;;;;;;;7.57;5.80;;;14.60;99.90;;;;;;4988601;28;20046;-76
2022/09/29 09:40:22;;;;;;;8.35;5.03;;;14.70;99.90;;;;;;4988357;28;20061;-75
2022/09/29 09:43:09;;;;;;;7.25;5.10;;;14.80;99.90;;;;;;5009627;28;20117;-76
2022/09/29 09:45:53;;;;;;;8.25;5.32;;;15.00;99.90;;;;;;5069006;28;20054;-83
2022/09/29 09:48:39;;;;;;;6.13;4.70;;;15.10;99.90;;;;;;5050808;28;20101;-80
2022/09/29 09:51:23;;;;;;;8.45;4.72;;;15.30;99.90;;;;;;5067668;28;20041;-77
2022/09/29 09:53:51;;;;;;;6.35;4.68;;;15.30;99.90;;;;;;5067594;28;20102;-80
2022/09/29 09:56:22;;;;;;;5.68;3.97;;;15.50;99.90;;;;;;5069384;28;20072;-78
2022/09/29 09:58:59;;;;;;;5.97;3.83;;;15.80;99.90;;;;;;5070251;28;20045;-78
2022/09/29 10:01:25;;;;;;;4.95;3.60;;;15.80;99.90;;;;;;5067544;28;20048;-78
2022/09/29 10:03:51;;;;;;;6.65;4.00;;;15.80;99.90;;;;;;5087233;28;20637;-81
2022/09/29 10:06:17;;;;;;;4.90;3.40;;;15.90;99.90;;;;;;5087243;28;20087;-76
2022/09/29 10:08:43;;;;;;;5.28;3.60;;;16.10;99.90;;;;;;5070027;28;20051;-84
2022/09/29 10:11:30;;;;;;;5.65;3.20;;;16.10;99.90;;;;;;5087019;28;20158;-74
2022/09/29 10:14:10;;;;;;;5.35;3.55;;;16.20;99.90;;;;;;5090572;28;20055;-77
2022/09/29 10:16:44;;;;;;;5.50;3.03;;;16.20;99.90;;;;;;5090248;28;20052;-85
2022/09/29 10:19:09;;;;;;;6.47;3.53;;;16.70;99.90;;;;;;5104299;28;20063;-80
2022/09/29 10:21:43;;;;;;;5.25;3.17;;;16.50;99.90;;;;;;5110677;28;20512;-84
2022/09/29 10:24:28;;;;;;;5.63;3.35;;;16.60;99.90;;;;;;5110618;28;20039;-76
2022/09/29 10:26:57;;;;;;;4.53;3.00;;;16.60;99.90;;;;;;5110288;28;20044;-77
2022/09/29 10:29:35;;;;;;;4.53;2.90;;;16.70;99.90;;;;;;5107744;28;20059;-82
2022/09/29 10:32:35;;;;;;;6.75;2.90;;;16.80;99.90;;;;;;5110698;28;20402;-78
2022/09/29 10:35:25;;;;;;;5.50;2.08;;;16.90;99.90;;;;;;5110405;28;20048;-79
2022/09/29 10:38:00;;;;;;;1.58;0.98;;;17.00;99.90;;;;;;5110898;28;20066;-79
2022/09/29 10:40:26;;;;;;;2.70;1.10;;;17.10;99.90;;;;;;5113056;28;20039;-84
2022/09/29 10:42:52;;;;;;;3.20;1.67;;;17.10;99.90;;;;;;5096225;28;20122;-83
2022/09/29 10:45:21;;;;;;;2.92;1.50;;;17.40;99.90;;;;;;5114714;28;20486;-83
2022/09/29 10:47:57;;;;;;;2.38;1.40;;;17.40;99.90;;;;;;5097303;28;20070;-87
2022/09/29 10:50:46;;;;;;;5.80;3.22;;;17.60;99.90;;;;;;5114120;28;20042;-80
2022/09/29 10:53:27;;;;;;;2.22;1.50;;;17.50;99.90;;;;;;5096101;28;20104;-86
2022/09/29 10:55:55;;;;;;;2.40;1.70;;;17.80;99.90;;;;;;5115119;28;20085;-84
2022/09/29 10:58:28;;;;;;;4.43;1.38;;;17.90;99.90;;;;;;5114285;28;20086;-81
2022/09/29 11:01:13;;;;;;;2.78;1.58;;;17.80;99.90;;;;;;5095984;28;20075;-82
2022/09/29 11:03:45;;;;;;;;;;;17.70;99.90;;;;;;5114829;28;20048;-83
2022/09/29 11:06:12;;;;;;;2.85;1.63;;;17.70;99.90;;;;;;5114477;28;20313;-80
2022/09/29 11:09:02;;;;;;;2.45;1.20;;;17.90;99.90;;;;;;5114505;28;20054;-79
2022/09/29 11:11:38;;;;;;;3.20;1.40;;;18.00;99.90;;;;;;5113395;28;20043;-86
2022/09/29 11:14:04;;;;;;;3.15;1.30;;;18.10;99.90;;;;;;5097812;28;20052;-79
2022/09/29 11:16:35;;;;;;;3.38;1.10;;;18.00;99.90;;;;;;5114352;28;20088;-79
2022/09/29 11:19:11;;;;;;;2.08;1.10;;;18.20;99.90;;;;;;5078550;28;20036;-82
2022/09/29 11:22:13;;;;;;;2.35;1.63;;;18.60;99.90;;;;;;5113234;28;20508;-83
2022/09/29 11:24:57;;;;;;;5.05;1.50;;;18.30;99.90;;;;;;5095466;28;20050;-78
2022/09/29 11:27:30;;;;;;;3.00;1.25;;;18.30;99.90;;;;;;5113496;28;20484;-79
2022/09/29 11:30:08;;;;;;;3.25;1.50;;;18.50;99.90;;;;;;5113647;28;20112;-79
2022/09/29 11:32:51;;;;;;;4.07;1.23;;;18.50;99.90;;;;;;5113366;28;20397;-79
2022/09/29 11:35:27;;;;;;;3.00;0.93;;;18.70;99.90;;;;;;5113805;28;20043;-79
2022/09/29 11:37:58;;;;;;;3.58;1.40;;;18.90;99.90;;;;;;5113651;28;20055;-81
2022/09/29 11:40:27;;;;;;;1.92;1.13;;;18.70;99.90;;;;;;5113339;28;20506;-77
2022/09/29 11:42:55;;;;;;;1.42;0.60;;;18.40;99.90;;;;;;5113406;28;20075;-80
2022/09/29 11:45:31;;;;;;;1.10;0.47;;;18.10;99.90;;;;;;5113344;28;20052;-77
2022/09/29 11:48:30;;;;;;;3.28;0.65;;;17.60;99.90;;;;;;5114039;28;20043;-77
2022/09/29 11:51:15;;;;;;;2.00;0.50;;;17.60;99.90;;;;;;5112968;28;20405;-78
2022/09/29 11:54:18;;;;;;;3.30;1.00;;;17.30;99.90;;;;;;5112957;28;20053;-81
2022/09/29 11:57:11;;;;;;;3.13;0.95;;;17.20;99.90;;;;;;5113474;28;20035;-77
2022/09/29 12:00:04;;;;;;;1.33;0.70;;;17.00;99.90;;;;;;5113101;28;20130;-80
2022/09/29 12:03:02;;;;;;;2.47;1.20;;;17.00;99.90;;;;;;5112008;28;20040;-77
2022/09/29 12:05:48;;;;;;;4.13;1.27;;;16.90;99.90;;;;;;5112999;28;20102;-80
2022/09/29 12:08:32;;;;;;;3.10;1.17;;;16.70;99.90;;;;;;5112802;28;20048;-80
2022/09/29 12:11:11;;;;;;;3.15;1.38;;;16.50;99.90;;;;;;5113046;28;20039;-90
2022/09/29 12:14:07;;;;;;;1.35;0.80;;;16.50;99.90;;;;;;5092371;28;20051;-79
2022/09/29 12:16:38;;;;;;;1.65;0.88;;;16.10;99.90;;;;;;5091865;28;20074;-79
2022/09/29 12:19:16;;;;;;;2.67;0.75;;;16.00;99.90;;;;;;5092928;28;20127;-79
2022/09/29 12:21:49;;;;;;;1.75;0.50;;;16.20;99.90;;;;;;5094616;28;20181;-81
2022/09/29 12:24:38;;;;;;;1.27;0.68;;;15.90;99.90;;;;;;5094472;28;20626;-82
2022/09/29 12:27:10;;;;;;;1.73;0.70;;;16.30;99.90;;;;;;4993381;28;20064;-83
2022/09/29 12:29:46;;;;;;;3.20;0.80;;;16.40;99.90;;;;;;5015121;28;20053;-79
2022/09/29 12:32:28;;;;;;;2.40;0.88;;;16.30;99.90;;;;;;5029160;28;20072;-79
2022/09/29 12:35:04;;;;;;;3.10;1.50;;;16.30;99.90;;;;;;5029543;28;20049;-79
2022/09/29 12:37:48;;;;;;;5.82;1.17;;;16.30;99.90;;;;;;5029391;28;20072;-79
2022/09/29 12:40:31;;;;;;;3.08;1.13;;;16.20;99.90;;;;;;5029450;28;20045;-82
2022/09/29 12:43:02;;;;;;;2.45;1.05;;;16.20;99.90;;;;;;5029004;28;20064;-81
2022/09/29 12:45:53;;;;;;;2.33;1.20;;;16.10;99.90;;;;;;5012479;28;20057;-79
2022/09/29 12:48:50;;;;;;;2.47;1.10;;;16.10;99.90;;;;;;5028635;28;20053;-82
2022/09/29 12:51:32;;;;;;;5.25;1.17;;;16.30;99.90;;;;;;5012801;28;20428;-82
2022/09/29 12:54:14;;;;;;;1.58;0.80;;;16.30;99.90;;;;;;5028895;28;20041;-78
2022/09/29 12:56:55;;;;;;;1.23;0.60;;;16.20;99.90;;;;;;5028670;28;20475;-83
2022/09/29 12:59:23;;;;;;;2.63;0.70;;;16.20;99.90;;;;;;5028671;28;20057;-77
2022/09/29 13:01:54;;;;;;;1.10;0.40;;;16.20;99.90;;;;;;5027963;28;20053;-79
2022/09/29 13:04:55;;;;;;;1.40;0.55;;;16.10;99.90;;;;;;5077981;28;20062;-83
2022/09/29 13:07:49;;;;;;;2.08;0.50;;;16.00;99.90;;;;;;5111842;28;20101;-76
2022/09/29 13:10:41;;;;;;;1.50;0.50;;;15.90;99.90;;;;;;5112018;28;20043;-78
2022/09/29 13:13:18;;;;;;;1.35;0.50;;;15.80;99.90;;;;;;5111471;28;20051;-78
2022/09/29 13:16:01;;;;;;;1.48;0.50;;;15.70;99.90;;;;;;5111617;28;20039;-78
2022/09/29 13:19:09;;;;;;;1.65;0.63;;;15.50;99.90;;;;;;5111807;28;20047;-82
2022/09/29 13:22:11;;;;;;;1.88;0.40;;;15.40;99.90;;;;;;5111505;28;20126;-77